Time;durP1;ratioP1;P1;durP2;ratioP2;P2;SDS_P1;SDS_P2;PMS_P1;PMS_P2;Temp;Humidity;BMP_temperature;BMP_pressure;BME280_temperature;BME280_humidity;BME280_pressure;Samples;Min_cycle;Max_cycle;Signal;HPM_P1;HPM_P2
2021/10/23 00:00:36;;;;;;;4.85;4.50;;;12.50;99.90;;;;;;4898094;29;20072;-87
2021/10/23 00:03:03;;;;;;;3.50;3.20;;;12.70;99.90;;;;;;4866844;29;20052;-85
2021/10/23 00:05:31;;;;;;;8.07;4.57;;;12.80;99.90;;;;;;4898287;29;20049;-88
2021/10/23 00:07:59;;;;;;;5.68;5.28;;;13.00;99.90;;;;;;4882920;29;20040;-90
2021/10/23 00:10:29;;;;;;;5.55;4.90;;;13.00;99.90;;;;;;4892073;29;20079;-89
2021/10/23 00:13:18;;;;;;;;;;;13.10;99.90;;;;;;4894268;23;20052;-89
2021/10/23 00:16:36;;;;;;;6.68;5.80;;;13.00;99.90;;;;;;4901070;29;19966;-88
2021/10/23 00:19:17;;;;;;;5.97;4.97;;;13.00;99.90;;;;;;4956262;23;20051;-84
2021/10/23 00:21:45;;;;;;;9.80;5.13;;;13.00;99.90;;;;;;4903750;29;20102;-84
2021/10/23 00:24:13;;;;;;;5.93;5.47;;;13.10;99.90;;;;;;4933823;29;20046;-85
2021/10/23 00:26:46;;;;;;;5.32;4.82;;;13.00;99.90;;;;;;4935987;29;20043;-83
2021/10/23 00:29:17;;;;;;;6.75;6.15;;;13.00;99.90;;;;;;4903305;29;20444;-81
2021/10/23 00:31:44;;;;;;;5.30;4.90;;;13.00;99.90;;;;;;4936409;29;20039;-87
2021/10/23 00:34:11;;;;;;;22.40;6.85;;;13.00;99.90;;;;;;4950705;29;20047;-82
2021/10/23 00:36:39;;;;;;;5.75;5.35;;;13.00;99.90;;;;;;4950066;29;20050;-84
2021/10/23 00:39:06;;;;;;;7.60;6.30;;;12.90;99.90;;;;;;4935313;29;20063;-86
2021/10/23 00:41:34;;;;;;;7.60;6.82;;;12.90;99.90;;;;;;4935915;29;20074;-83
2021/10/23 00:44:01;;;;;;;5.07;4.68;;;12.90;99.90;;;;;;4935534;29;20127;-81
2021/10/23 00:46:28;;;;;;;3.88;3.53;;;12.90;99.90;;;;;;4918290;29;20048;-83
2021/10/23 00:49:12;;;;;;;7.55;6.60;;;12.90;99.90;;;;;;4933687;29;20051;-83
2021/10/23 00:51:53;;;;;;;5.30;4.43;;;12.80;99.90;;;;;;4935421;29;20369;-85
2021/10/23 00:54:20;;;;;;;4.38;4.07;;;12.80;99.90;;;;;;4933532;29;20089;-84
2021/10/23 00:57:03;;;;;;;4.07;3.78;;;12.80;99.90;;;;;;4914713;29;20058;-86
2021/10/23 00:59:31;;;;;;;6.18;5.57;;;12.70;99.90;;;;;;4903002;29;20039;-85
2021/10/23 01:02:02;;;;;;;6.80;6.30;;;12.50;99.90;;;;;;4935443;29;20135;-85
2021/10/23 01:04:30;;;;;;;4.88;4.50;;;12.50;99.90;;;;;;4917852;29;20035;-84
2021/10/23 01:06:58;;;;;;;7.05;6.28;;;12.60;99.90;;;;;;4935532;29;20130;-84
2021/10/23 01:09:25;;;;;;;4.75;4.35;;;12.50;99.90;;;;;;4938340;29;20126;-81
2021/10/23 01:11:54;;;;;;;4.55;4.25;;;12.50;99.90;;;;;;4937323;29;20046;-83
2021/10/23 01:14:34;;;;;;;7.38;5.13;;;12.50;99.90;;;;;;4937061;29;20129;-84
2021/10/23 01:17:02;;;;;;;8.02;7.20;;;12.40;99.90;;;;;;4954008;29;20067;-84
2021/10/23 01:19:30;;;;;;;10.13;6.45;;;12.50;99.90;;;;;;4921629;29;20109;-86
2021/10/23 01:21:57;;;;;;;5.95;5.35;;;12.50;99.90;;;;;;4937022;29;20158;-86
2021/10/23 01:24:37;;;;;;;4.53;4.13;;;12.40;99.90;;;;;;4921588;29;20050;-86
2021/10/23 01:27:04;;;;;;;5.53;5.05;;;12.40;99.90;;;;;;4937141;29;20062;-85
2021/10/23 01:29:31;;;;;;;4.03;3.72;;;12.40;99.90;;;;;;4921371;29;20418;-86
2021/10/23 01:32:13;;;;;;;5.50;5.10;;;12.50;99.90;;;;;;4937960;29;20059;-87
2021/10/23 01:34:55;;;;;;;11.73;6.40;;;12.40;99.90;;;;;;4937932;28;20130;-88
2021/10/23 01:37:49;;;;;;;5.75;5.30;;;12.50;99.90;;;;;;4937444;29;20102;-89
2021/10/23 01:40:19;;;;;;;4.80;4.40;;;12.60;99.90;;;;;;4937335;29;20090;-87
2021/10/23 01:42:47;;;;;;;4.88;4.40;;;12.50;99.90;;;;;;4921132;29;20159;-85
2021/10/23 01:45:15;;;;;;;3.97;3.63;;;12.40;99.90;;;;;;4901297;23;20059;-85
2021/10/23 01:47:43;;;;;;;5.88;5.38;;;12.40;99.90;;;;;;4880716;29;20059;-85
2021/10/23 01:50:21;;;;;;;6.40;5.85;;;12.40;99.90;;;;;;4881107;29;20084;-87
2021/10/23 01:52:49;;;;;;;4.47;4.07;;;12.50;99.90;;;;;;4880410;29;20040;-87
2021/10/23 01:55:32;;;;;;;7.00;6.30;;;12.40;99.90;;;;;;4880601;29;20450;-88
2021/10/23 01:58:16;;;;;;;6.65;6.13;;;12.40;99.90;;;;;;4865193;29;20127;-85
2021/10/23 02:00:43;;;;;;;5.95;4.93;;;12.20;99.90;;;;;;4880869;29;20442;-88
2021/10/23 02:03:13;;;;;;;5.43;4.43;;;12.20;99.90;;;;;;4880498;29;20139;-88
2021/10/23 02:05:43;;;;;;;24.20;5.18;;;12.30;99.90;;;;;;4880337;29;20352;-88
2021/10/23 02:08:11;;;;;;;5.28;4.78;;;12.30;99.90;;;;;;4880574;29;20088;-88
2021/10/23 02:10:39;;;;;;;6.05;5.55;;;12.30;99.90;;;;;;4880715;29;20036;-87
2021/10/23 02:13:18;;;;;;;3.78;3.47;;;12.30;99.90;;;;;;4880450;29;20104;-87
2021/10/23 02:16:01;;;;;;;4.55;4.10;;;12.20;99.90;;;;;;4895685;29;20064;-88
2021/10/23 02:18:31;;;;;;;5.55;4.70;;;12.30;99.90;;;;;;4865159;29;20145;-88
2021/10/23 02:20:59;;;;;;;4.05;3.70;;;12.40;99.90;;;;;;4865104;29;20063;-87
2021/10/23 02:23:52;;;;;;;4.95;4.55;;;12.30;99.90;;;;;;4864868;29;20159;-86
2021/10/23 02:26:20;;;;;;;5.25;4.85;;;12.40;99.90;;;;;;4897040;29;20040;-88
2021/10/23 02:28:47;;;;;;;5.13;4.72;;;12.40;99.90;;;;;;4880296;29;20554;-87
2021/10/23 02:31:24;;;;;;;6.18;5.68;;;12.40;99.90;;;;;;4880394;29;20147;-88
2021/10/23 02:33:51;;;;;;;5.32;4.90;;;12.30;99.90;;;;;;4864768;29;20048;-88
2021/10/23 02:36:18;;;;;;;4.88;4.50;;;12.40;99.90;;;;;;4880042;29;20048;-87
2021/10/23 02:38:47;;;;;;;5.47;4.53;;;12.30;99.90;;;;;;4865090;29;20049;-88
2021/10/23 02:41:46;;;;;;;4.95;4.55;;;12.10;99.90;;;;;;4880406;29;20127;-87
2021/10/23 02:44:14;;;;;;;5.25;4.70;;;12.10;99.90;;;;;;4880030;29;20055;-85
2021/10/23 02:46:42;;;;;;;4.75;4.35;;;12.20;99.90;;;;;;4879426;29;20064;-83
2021/10/23 02:49:09;;;;;;;4.15;3.58;;;12.20;99.90;;;;;;4883586;29;20059;-86
2021/10/23 02:51:36;;;;;;;3.10;2.90;;;12.20;99.90;;;;;;4883957;29;20175;-88
2021/10/23 02:54:05;;;;;;;3.90;3.60;;;12.20;99.90;;;;;;4868403;29;20408;-89
2021/10/23 02:56:33;;;;;;;7.32;4.05;;;12.20;99.90;;;;;;4884085;29;20047;-89
2021/10/23 02:59:00;;;;;;;3.15;2.95;;;12.30;99.90;;;;;;4868923;29;20084;-85
2021/10/23 03:01:30;;;;;;;4.13;3.83;;;12.30;99.90;;;;;;4883457;29;20466;-87
2021/10/23 03:03:57;;;;;;;4.78;4.35;;;12.20;99.90;;;;;;4883059;29;20052;-87
2021/10/23 03:06:24;;;;;;;4.68;4.28;;;12.20;99.90;;;;;;4900091;29;20036;-87
2021/10/23 03:09:17;;;;;;;5.22;4.75;;;12.00;99.90;;;;;;4868160;29;20147;-88
2021/10/23 03:11:45;;;;;;;4.22;3.90;;;12.00;99.90;;;;;;4889639;23;20469;-86
2021/10/23 03:14:12;;;;;;;4.60;3.65;;;12.10;99.90;;;;;;4898541;29;20096;-88
2021/10/23 03:16:39;;;;;;;3.70;3.40;;;12.10;99.90;;;;;;4898818;29;20700;-84
2021/10/23 03:19:07;;;;;;;8.18;7.10;;;12.10;99.90;;;;;;4882899;29;20052;-83
2021/10/23 03:21:34;;;;;;;3.60;3.30;;;12.10;99.90;;;;;;4875089;29;20132;-85
2021/10/23 03:24:02;;;;;;;3.85;3.42;;;12.20;99.90;;;;;;4879501;29;20148;-86
2021/10/23 03:26:29;;;;;;;4.43;4.13;;;12.20;99.90;;;;;;4871656;29;20076;-87
2021/10/23 03:28:57;;;;;;;4.57;4.18;;;12.20;99.90;;;;;;4899258;29;20438;-90
2021/10/23 03:31:25;;;;;;;4.93;4.53;;;12.10;99.90;;;;;;4884399;29;20057;-89
2021/10/23 03:33:52;;;;;;;4.60;4.22;;;12.10;99.90;;;;;;4898179;29;20401;-87
2021/10/23 03:36:19;;;;;;;5.05;4.65;;;12.20;99.90;;;;;;4899632;29;20404;-87
2021/10/23 03:38:47;;;;;;;3.38;3.10;;;12.20;99.90;;;;;;4877887;29;20527;-84
2021/10/23 03:41:14;;;;;;;3.85;3.38;;;12.20;99.90;;;;;;4884920;29;20056;-85
2021/10/23 03:46:49;;;;;;;3.53;3.25;;;12.10;99.90;;;;;;5275866;23;20051;-86
2021/10/23 03:49:26;;;;;;;5.85;5.28;;;12.10;99.90;;;;;;4920561;29;20067;-85
2021/10/23 03:51:59;;;;;;;6.50;6.00;;;12.20;99.90;;;;;;4920367;29;20142;-86
2021/10/23 03:54:27;;;;;;;5.05;4.55;;;12.10;99.90;;;;;;4935650;29;20142;-84
2021/10/23 03:56:58;;;;;;;4.43;4.03;;;12.10;99.90;;;;;;4935396;29;20066;-85
2021/10/23 03:59:25;;;;;;;3.63;3.33;;;12.10;99.90;;;;;;4934286;29;20126;-86
2021/10/23 04:01:53;;;;;;;4.22;3.90;;;12.20;99.90;;;;;;4935821;29;20114;-86
2021/10/23 04:04:20;;;;;;;4.05;3.75;;;12.10;99.90;;;;;;4919554;29;20079;-85
2021/10/23 04:06:48;;;;;;;5.15;4.63;;;12.00;99.90;;;;;;4919912;29;20138;-85
2021/10/23 04:09:15;;;;;;;5.00;4.60;;;12.00;99.90;;;;;;4919392;29;20139;-84
2021/10/23 04:11:43;;;;;;;4.10;3.70;;;11.90;99.90;;;;;;4919814;29;20048;-85
2021/10/23 04:14:10;;;;;;;3.95;3.65;;;11.90;99.90;;;;;;4935143;29;20048;-83
2021/10/23 04:16:38;;;;;;;3.60;3.30;;;11.80;99.90;;;;;;4935095;29;20044;-83
2021/10/23 04:19:09;;;;;;;4.65;4.28;;;11.90;99.90;;;;;;4934671;29;20142;-82
2021/10/23 04:21:37;;;;;;;3.83;3.53;;;12.00;99.90;;;;;;4936035;29;20044;-83
2021/10/23 04:24:19;;;;;;;3.97;3.67;;;11.90;99.90;;;;;;4934498;29;20047;-79
2021/10/23 04:26:49;;;;;;;4.18;3.88;;;11.90;99.90;;;;;;4936099;29;20646;-83
2021/10/23 04:29:36;;;;;;;3.90;3.60;;;12.00;99.90;;;;;;4935787;29;20497;-84
2021/10/23 04:32:04;;;;;;;3.78;3.47;;;12.10;99.90;;;;;;4931301;29;20605;-86
2021/10/23 04:34:37;;;;;;;6.30;5.68;;;12.10;99.90;;;;;;4938075;29;20106;-81
2021/10/23 04:37:04;;;;;;;5.55;4.30;;;12.10;99.90;;;;;;4953749;29;20055;-85
2021/10/23 04:39:32;;;;;;;3.95;3.65;;;12.10;99.90;;;;;;4922040;29;20376;-85
2021/10/23 04:41:59;;;;;;;5.28;4.78;;;12.10;99.90;;;;;;4954001;29;20050;-85
2021/10/23 04:44:27;;;;;;;3.28;3.03;;;12.10;99.90;;;;;;4938018;29;20051;-85
2021/10/23 04:46:54;;;;;;;3.90;3.60;;;12.20;99.90;;;;;;4937428;29;20070;-84
2021/10/23 04:49:47;;;;;;;3.90;3.60;;;12.10;99.90;;;;;;4954806;29;20050;-84
2021/10/23 04:52:15;;;;;;;3.47;3.20;;;12.20;99.90;;;;;;4938252;29;20051;-85
2021/10/23 04:54:42;;;;;;;4.53;4.18;;;12.20;99.90;;;;;;4953378;29;20146;-83
2021/10/23 04:57:09;;;;;;;3.08;2.88;;;12.10;99.90;;;;;;4953490;29;20204;-85
2021/10/23 04:59:49;;;;;;;3.20;2.97;;;12.10;99.90;;;;;;4938604;29;20059;-89
2021/10/23 05:02:16;;;;;;;4.93;4.50;;;12.20;99.90;;;;;;4938756;29;20059;-85
2021/10/23 05:04:44;;;;;;;15.55;6.72;;;12.10;99.90;;;;;;4938041;29;20047;-90
2021/10/23 05:07:12;;;;;;;3.17;2.90;;;12.10;99.90;;;;;;4938073;29;20055;-88
2021/10/23 05:09:40;;;;;;;10.48;4.03;;;12.20;99.90;;;;;;4937684;29;20399;-89
2021/10/23 05:12:08;;;;;;;3.63;3.33;;;12.20;99.90;;;;;;4954629;29;20054;-86
2021/10/23 05:14:36;;;;;;;4.25;3.95;;;12.10;99.90;;;;;;4937880;29;20067;-89
2021/10/23 05:17:03;;;;;;;3.60;3.30;;;12.20;99.90;;;;;;4938469;29;20155;-86
2021/10/23 05:19:43;;;;;;;4.20;3.83;;;12.20;99.90;;;;;;4954827;29;20039;-87
2021/10/23 05:23:16;;;;;;;4.00;3.70;;;12.20;99.90;;;;;;4939702;29;20122;-93
2021/10/23 05:25:44;;;;;;;4.13;3.83;;;12.30;99.90;;;;;;4954972;29;20043;-86
2021/10/23 05:28:20;;;;;;;3.60;3.30;;;12.10;99.90;;;;;;4955459;29;20051;-91
2021/10/23 05:30:49;;;;;;;3.40;3.10;;;12.00;99.90;;;;;;4923492;29;20473;-91
2021/10/23 05:33:19;;;;;;;4.40;3.78;;;12.00;99.90;;;;;;4940228;29;20119;-92
2021/10/23 05:35:57;;;;;;;6.60;6.00;;;12.10;99.90;;;;;;4970619;28;20031;-87
2021/10/23 05:38:58;;;;;;;10.15;9.30;;;12.20;99.90;;;;;;4959763;28;20046;-91
2021/10/23 05:41:40;;;;;;;5.82;5.32;;;12.20;99.90;;;;;;4950452;28;20407;-90
2021/10/23 05:44:08;;;;;;;5.18;3.63;;;12.30;99.90;;;;;;4941000;28;20121;-91
2021/10/23 05:46:35;;;;;;;4.30;4.00;;;12.30;99.90;;;;;;4957368;28;20097;-91
2021/10/23 05:49:02;;;;;;;4.63;4.28;;;12.30;99.90;;;;;;4971992;28;20402;-88
2021/10/23 05:51:31;;;;;;;4.28;3.97;;;12.20;99.90;;;;;;4957387;28;21216;-89
2021/10/23 05:57:16;;;;;;;5.60;5.20;;;12.40;99.90;;;;;;4976289;28;20039;-93
2021/10/23 05:59:46;;;;;;;6.28;5.72;;;12.60;99.90;;;;;;4957865;28;20054;-93
2021/10/23 06:02:31;;;;;;;4.53;4.20;;;12.40;99.90;;;;;;4974049;28;20074;-94
2021/10/23 06:05:12;;;;;;;4.55;4.20;;;12.50;99.90;;;;;;4972320;28;20783;-93
2021/10/23 06:07:41;;;;;;;4.45;4.15;;;12.60;99.90;;;;;;4958012;28;20434;-83
2021/10/23 06:10:15;;;;;;;4.32;3.92;;;12.50;99.90;;;;;;4963748;28;20090;-88
2021/10/23 06:12:44;;;;;;;3.85;3.55;;;12.50;99.90;;;;;;4969287;28;20406;-92
2021/10/23 06:15:12;;;;;;;3.53;3.22;;;12.50;99.90;;;;;;4973674;28;20038;-92
2021/10/23 06:17:40;;;;;;;3.75;3.45;;;12.50;99.90;;;;;;4955465;28;20050;-93
2021/10/23 06:20:08;;;;;;;3.88;3.58;;;12.60;99.90;;;;;;4956499;28;20054;-91
2021/10/23 06:22:36;;;;;;;4.28;3.95;;;12.70;99.90;;;;;;4927689;29;20047;-88
2021/10/23 06:25:05;;;;;;;3.75;3.45;;;12.80;99.90;;;;;;4941071;29;20051;-94
2021/10/23 06:27:33;;;;;;;4.30;4.00;;;12.80;99.90;;;;;;4927227;29;20050;-89
2021/10/23 06:30:00;;;;;;;4.30;3.95;;;12.70;99.90;;;;;;4942483;29;20047;-92
2021/10/23 06:32:29;;;;;;;10.40;3.67;;;12.70;99.90;;;;;;4959785;29;20407;-90
2021/10/23 06:34:56;;;;;;;3.78;3.47;;;12.80;99.90;;;;;;4956626;29;20395;-92
2021/10/23 06:37:26;;;;;;;5.80;5.32;;;12.90;99.90;;;;;;4941899;29;20043;-94
2021/10/23 06:39:53;;;;;;;3.03;2.83;;;13.00;99.90;;;;;;4941973;29;20087;-89
2021/10/23 06:42:21;;;;;;;3.88;3.58;;;13.10;99.90;;;;;;4942618;29;20043;-96
2021/10/23 06:44:48;;;;;;;2.95;2.75;;;13.20;99.90;;;;;;4943629;29;20138;-92
2021/10/23 06:47:17;;;;;;;7.07;4.85;;;13.10;99.90;;;;;;4953595;29;20043;-93
2021/10/23 06:49:45;;;;;;;4.63;4.25;;;13.20;99.90;;;;;;4926512;29;20054;-92
2021/10/23 06:52:12;;;;;;;3.92;3.63;;;13.30;99.90;;;;;;4942380;29;20142;-90
2021/10/23 06:54:39;;;;;;;4.90;4.50;;;13.30;99.90;;;;;;4943441;29;20471;-91
2021/10/23 06:57:07;;;;;;;2.60;2.40;;;13.20;99.90;;;;;;4941346;29;20047;-92
2021/10/23 06:59:54;;;;;;;3.55;3.25;;;13.30;99.90;;;;;;4955649;29;20043;-90
2021/10/23 07:02:21;;;;;;;5.10;4.53;;;13.40;99.90;;;;;;4956885;29;20185;-90
2021/10/23 07:04:49;;;;;;;4.57;4.15;;;13.40;99.90;;;;;;4941748;29;20601;-89
2021/10/23 07:07:16;;;;;;;4.63;4.18;;;13.50;99.90;;;;;;4957530;29;20082;-92
2021/10/23 07:09:44;;;;;;;3.38;3.08;;;13.90;99.90;;;;;;4938991;29;20135;-90
2021/10/23 07:12:11;;;;;;;7.55;4.53;;;14.10;99.90;;;;;;4955052;29;20055;-90
2021/10/23 07:14:47;;;;;;;4.40;4.00;;;14.30;99.90;;;;;;4942371;29;20086;-92
2021/10/23 07:17:15;;;;;;;3.45;3.15;;;14.50;99.90;;;;;;4942393;29;20082;-92
2021/10/23 07:19:42;;;;;;;4.95;4.47;;;14.70;99.90;;;;;;4957092;28;20114;-90
2021/10/23 07:22:10;;;;;;;3.55;3.25;;;14.80;99.90;;;;;;4956494;29;20150;-93
2021/10/23 07:24:37;;;;;;;3.28;2.97;;;14.80;99.90;;;;;;4957335;29;20474;-94
2021/10/23 07:27:04;;;;;;;4.28;3.88;;;15.00;99.90;;;;;;4957344;29;20147;-92
2021/10/23 07:29:33;;;;;;;5.10;3.50;;;15.10;99.90;;;;;;4940688;29;20126;-87
2021/10/23 07:32:00;;;;;;;3.50;3.20;;;15.20;99.90;;;;;;4959454;29;20047;-91
2021/10/23 07:34:28;;;;;;;4.60;4.25;;;15.40;99.90;;;;;;4938183;29;20059;-89
2021/10/23 07:36:55;;;;;;;24.83;4.05;;;15.80;99.90;;;;;;4956162;29;20062;-87
2021/10/23 07:39:23;;;;;;;5.55;5.00;;;15.80;99.90;;;;;;4963952;28;20050;-90
2021/10/23 07:41:51;;;;;;;5.63;5.15;;;15.70;99.90;;;;;;4938591;23;20122;-91
2021/10/23 07:44:21;;;;;;;4.10;3.70;;;15.50;99.90;;;;;;4903247;29;20048;-93
2021/10/23 07:46:49;;;;;;;4.93;4.43;;;15.40;99.90;;;;;;4901089;29;20060;-92
2021/10/23 07:49:16;;;;;;;5.18;4.32;;;15.30;99.90;;;;;;4902680;29;20048;-86
2021/10/23 07:51:44;;;;;;;5.53;5.03;;;15.40;99.90;;;;;;4900336;29;20143;-87
2021/10/23 07:54:11;;;;;;;5.35;4.75;;;15.80;99.90;;;;;;4916990;29;20507;-86
2021/10/23 07:56:43;;;;;;;3.78;3.42;;;15.90;99.90;;;;;;4898966;29;20079;-86
2021/10/23 07:59:31;;;;;;;8.10;6.20;;;16.00;99.90;;;;;;4916083;29;20042;-89
2021/10/23 08:02:08;;;;;;;7.85;4.07;;;15.80;99.90;;;;;;4898791;29;20056;-88
2021/10/23 08:04:36;;;;;;;4.30;4.00;;;15.60;99.90;;;;;;4899412;29;20076;-88
2021/10/23 08:07:59;;;;;;;5.65;5.22;;;15.40;99.90;;;;;;4916955;29;20123;-88
2021/10/23 08:13:57;;;;;;;5.72;3.75;;;15.20;99.90;;;;;;4900482;29;20044;-89
2021/10/23 08:16:54;;;;;;;8.05;5.43;;;15.40;99.90;;;;;;4899976;29;20048;-84
2021/10/23 08:19:21;;;;;;;3.15;2.88;;;15.40;99.90;;;;;;4884974;29;20091;-83
2021/10/23 08:21:51;;;;;;;3.63;3.33;;;15.50;99.90;;;;;;4896742;29;20119;-85
2021/10/23 08:24:19;;;;;;;4.88;4.47;;;15.50;99.90;;;;;;4898263;29;20063;-83
2021/10/23 08:26:47;;;;;;;6.50;3.72;;;15.40;99.90;;;;;;4915394;29;20044;-85
2021/10/23 08:29:15;;;;;;;4.28;3.88;;;15.40;99.90;;;;;;4916546;29;20055;-90
2021/10/23 08:31:43;;;;;;;3.10;2.17;;;15.30;99.90;;;;;;4900444;29;20043;-90
2021/10/23 08:34:19;;;;;;;2.67;2.47;;;15.30;99.90;;;;;;4885637;29;20055;-92
2021/10/23 08:36:47;;;;;;;4.03;3.72;;;15.00;99.90;;;;;;4900464;29;20478;-90
2021/10/23 08:39:15;;;;;;;3.42;3.13;;;14.90;99.90;;;;;;4885131;29;20051;-89
2021/10/23 08:41:43;;;;;;;3.78;3.55;;;14.90;99.90;;;;;;4883597;29;20043;-85
2021/10/23 08:44:14;;;;;;;5.43;4.93;;;14.60;99.90;;;;;;4929231;29;20115;-84
2021/10/23 08:46:42;;;;;;;3.38;3.08;;;14.60;99.90;;;;;;4897264;29;20048;-87
2021/10/23 08:49:13;;;;;;;5.45;5.00;;;14.70;99.90;;;;;;4900096;29;20052;-87
2021/10/23 08:51:43;;;;;;;6.20;4.97;;;14.90;99.90;;;;;;4913746;29;20044;-86
2021/10/23 08:54:14;;;;;;;3.40;3.15;;;14.80;99.90;;;;;;4884958;29;20437;-94
2021/10/23 08:56:42;;;;;;;6.05;5.55;;;14.90;99.90;;;;;;4898518;29;20103;-86
2021/10/23 08:59:10;;;;;;;6.70;6.03;;;14.90;99.90;;;;;;4897925;29;20044;-86
2021/10/23 09:01:37;;;;;;;3.95;3.65;;;14.70;99.90;;;;;;4882849;29;20135;-87
2021/10/23 09:04:05;;;;;;;7.32;6.25;;;14.90;99.90;;;;;;4913716;29;20051;-91
2021/10/23 09:06:40;;;;;;;5.50;5.03;;;14.90;99.90;;;;;;4886323;29;20056;-93
2021/10/23 09:09:13;;;;;;;3.90;3.55;;;15.20;99.90;;;;;;4916207;29;20078;-91
2021/10/23 09:11:44;;;;;;;5.28;4.88;;;14.80;99.90;;;;;;4898600;29;20099;-84
2021/10/23 09:14:34;;;;;;;5.03;4.63;;;15.00;99.90;;;;;;4898558;29;20067;-84
2021/10/23 09:17:08;;;;;;;16.27;5.60;;;15.00;99.90;;;;;;4915831;29;20040;-83
2021/10/23 09:19:49;;;;;;;3.42;3.20;;;15.10;99.90;;;;;;4921051;29;20047;-91
2021/10/23 09:22:27;;;;;;;6.18;5.57;;;15.60;99.90;;;;;;4911302;29;20040;-92
2021/10/23 09:25:29;;;;;;;4.85;4.35;;;15.10;99.90;;;;;;4882054;29;20111;-83
2021/10/23 09:28:14;;;;;;;4.95;4.25;;;15.00;99.90;;;;;;4929727;29;20048;-86
2021/10/23 09:30:49;;;;;;;2.42;2.22;;;15.10;99.90;;;;;;4896495;29;20062;-85
2021/10/23 09:33:25;;;;;;;4.55;4.25;;;15.20;99.90;;;;;;4880738;29;20139;-87
2021/10/23 09:36:03;;;;;;;4.35;4.05;;;15.00;99.90;;;;;;4898112;29;20055;-84
2021/10/23 09:39:26;;;;;;;4.07;3.67;;;14.80;99.90;;;;;;4914578;29;20047;-88
2021/10/23 09:45:15;;;;;;;4.88;4.45;;;14.90;99.90;;;;;;4906994;23;20543;-90
2021/10/23 09:47:44;;;;;;;4.93;4.47;;;15.10;99.90;;;;;;4906884;29;20110;-90
2021/10/23 09:50:20;;;;;;;4.00;3.65;;;15.30;99.90;;;;;;4921518;29;20283;-93
2021/10/23 09:53:07;;;;;;;10.60;5.45;;;15.40;99.90;;;;;;4922134;29;20049;-88
2021/10/23 09:55:49;;;;;;;2.92;2.72;;;15.30;99.90;;;;;;4937759;28;20376;-89
2021/10/23 09:58:23;;;;;;;3.67;3.40;;;15.50;99.90;;;;;;4919276;29;20043;-83
2021/10/23 10:00:53;;;;;;;3.35;3.05;;;15.50;99.90;;;;;;4934569;29;20051;-85
2021/10/23 10:03:25;;;;;;;6.88;5.13;;;15.60;99.90;;;;;;4952904;29;20049;-81
2021/10/23 10:05:59;;;;;;;9.63;8.00;;;16.30;99.90;;;;;;4934863;29;20058;-89
2021/10/23 10:09:18;;;;;;;5.53;5.03;;;17.00;99.90;;;;;;4938270;28;20054;-89
2021/10/23 10:12:07;;;;;;;5.70;5.30;;;17.30;99.90;;;;;;4938331;28;20094;-88
2021/10/23 10:15:09;;;;;;;3.97;3.60;;;17.30;99.90;;;;;;4955810;28;20047;-91
2021/10/23 10:18:53;;;;;;;1.75;1.65;;;17.30;99.90;;;;;;4957343;28;20061;-90
2021/10/23 10:21:23;;;;;;;4.93;3.40;;;17.30;99.90;;;;;;4907733;28;20783;-90
2021/10/23 10:23:55;;;;;;;2.63;2.42;;;17.40;99.90;;;;;;4941114;28;20904;-89
2021/10/23 10:26:36;;;;;;;2.50;2.30;;;17.50;99.90;;;;;;4939513;28;20057;-88
2021/10/23 10:29:12;;;;;;;1.63;1.52;;;17.40;99.90;;;;;;4954230;28;20058;-90
2021/10/23 10:38:11;;;;;;;2.53;2.33;;;17.60;99.90;;;;;;4901996;28;20155;-87
2021/10/23 10:44:16;;;;;;;2.40;2.20;;;17.50;99.90;;;;;;4970935;28;20055;-87
2021/10/23 10:47:04;;;;;;;12.00;2.70;;;17.40;99.90;;;;;;4958933;28;20054;-90
2021/10/23 10:49:53;;;;;;;2.38;2.17;;;17.10;99.90;;;;;;4957632;28;20053;-88
2021/10/23 10:56:48;;;;;;;2.97;2.78;;;17.00;99.90;;;;;;4978591;23;20055;-88
2021/10/23 10:59:50;;;;;;;4.40;3.97;;;16.90;99.90;;;;;;4915993;29;20114;-89
2021/10/23 11:02:30;;;;;;;3.40;3.13;;;16.90;99.90;;;;;;4901986;29;20155;-86
2021/10/23 11:05:09;;;;;;;4.07;3.72;;;16.70;99.90;;;;;;4933939;29;20039;-88
2021/10/23 11:08:06;;;;;;;3.15;2.95;;;16.80;99.90;;;;;;4918263;29;20050;-88
2021/10/23 11:10:50;;;;;;;3.55;3.25;;;17.10;99.90;;;;;;4934811;29;20127;-90
2021/10/23 11:13:43;;;;;;;2.67;2.45;;;17.00;99.90;;;;;;4936177;29;20136;-87
2021/10/23 11:17:15;;;;;;;4.03;3.72;;;17.50;99.90;;;;;;4899142;29;20052;-89
2021/10/23 11:20:04;;;;;;;4.13;3.72;;;17.70;99.90;;;;;;4896926;29;20147;-92
2021/10/23 11:25:32;;;;;;;8.02;4.90;;;17.70;99.90;;;;;;1195704;26;20400;-85
2021/10/23 11:28:08;;;;;;;2.70;2.50;;;18.20;99.90;;;;;;4917517;29;20100;-89
2021/10/23 11:31:29;;;;;;;3.67;3.38;;;18.30;99.90;;;;;;4869602;29;20056;-87
2021/10/23 11:33:57;;;;;;;1.75;1.65;;;18.10;99.90;;;;;;4899945;29;20056;-89
2021/10/23 11:37:15;;;;;;;2.35;2.17;;;17.60;99.90;;;;;;4889111;29;20505;-88
2021/10/23 11:40:17;;;;;;;2.95;2.75;;;17.50;99.90;;;;;;4907779;29;20044;-91
2021/10/23 11:43:33;;;;;;;5.30;3.35;;;17.30;99.90;;;;;;4914505;29;20062;-89
2021/10/23 11:46:25;;;;;;;3.92;3.63;;;18.20;99.90;;;;;;4930152;29;20059;-89
2021/10/23 11:49:06;;;;;;;2.15;1.95;;;18.80;99.90;;;;;;4901033;29;20055;-90
2021/10/23 11:51:42;;;;;;;2.97;2.67;;;18.30;99.90;;;;;;4919854;29;20114;-90
2021/10/23 11:54:10;;;;;;;2.70;2.50;;;18.70;99.90;;;;;;4933711;29;20075;-90
2021/10/23 11:56:47;;;;;;;3.22;2.45;;;18.70;99.90;;;;;;4903291;29;20162;-88
2021/10/23 12:00:18;;;;;;;3.15;2.10;;;18.80;99.90;;;;;;4920612;29;20146;-90
2021/10/23 12:03:10;;;;;;;3.40;2.35;;;19.00;99.90;;;;;;4921112;29;20092;-89
2021/10/23 12:05:52;;;;;;;2.15;1.95;;;19.40;99.90;;;;;;4920399;29;20408;-88
2021/10/23 12:08:45;;;;;;;2.85;2.65;;;19.40;99.90;;;;;;4907852;29;20043;-90
2021/10/23 12:11:29;;;;;;;3.60;1.45;;;19.30;99.90;;;;;;4899299;29;20052;-88
2021/10/23 12:14:01;;;;;;;2.20;2.00;;;19.10;99.90;;;;;;4914914;29;20054;-91
2021/10/23 12:16:46;;;;;;;3.08;2.67;;;18.90;99.90;;;;;;4904589;29;20123;-91
2021/10/23 12:19:31;;;;;;;2.65;2.45;;;18.90;99.90;;;;;;4898723;29;20048;-92
2021/10/23 12:22:04;;;;;;;1.60;1.50;;;18.70;99.90;;;;;;4916427;29;20055;-90
2021/10/23 12:24:56;;;;;;;1.67;1.58;;;18.60;99.90;;;;;;4904041;29;20075;-89
2021/10/23 12:27:28;;;;;;;2.70;2.50;;;18.60;99.90;;;;;;4867598;29;20179;-89
2021/10/23 12:30:16;;;;;;;2.05;1.95;;;18.60;99.90;;;;;;4889132;29;20079;-89
2021/10/23 12:33:06;;;;;;;1.58;1.48;;;18.60;99.90;;;;;;4904998;29;20051;-89
2021/10/23 12:35:34;;;;;;;1.88;1.77;;;18.60;99.90;;;;;;4904455;29;20044;-89
2021/10/23 12:38:23;;;;;;;1.95;1.85;;;18.60;99.90;;;;;;4904953;29;20066;-90
2021/10/23 12:40:59;;;;;;;2.35;2.08;;;18.60;99.90;;;;;;4919870;29;20048;-92
2021/10/23 12:43:29;;;;;;;1.60;1.50;;;18.60;99.90;;;;;;4902096;29;20063;-91
2021/10/23 12:45:56;;;;;;;2.65;2.45;;;18.40;99.90;;;;;;4906111;29;20060;-90
2021/10/23 12:48:25;;;;;;;2.25;2.13;;;18.30;99.90;;;;;;4920607;29;20155;-90
2021/10/23 12:51:06;;;;;;;3.58;3.28;;;18.30;99.90;;;;;;4904055;29;20052;-93
2021/10/23 12:53:59;;;;;;;2.80;2.60;;;18.20;99.90;;;;;;4904141;29;20051;-93
2021/10/23 12:56:27;;;;;;;3.05;2.58;;;18.30;99.90;;;;;;4936474;29;20062;-91
2021/10/23 12:58:55;;;;;;;1.98;1.85;;;18.20;99.90;;;;;;4906144;29;20130;-91
2021/10/23 13:01:23;;;;;;;3.10;2.80;;;18.20;99.90;;;;;;4912020;29;20111;-92
2021/10/23 13:03:51;;;;;;;2.45;1.67;;;18.10;99.90;;;;;;4911304;29;20048;-91
2021/10/23 13:06:19;;;;;;;2.67;2.47;;;18.10;99.90;;;;;;4910372;29;20118;-91
2021/10/23 13:08:46;;;;;;;3.10;2.85;;;18.20;99.90;;;;;;4902628;29;20056;-89
2021/10/23 13:11:16;;;;;;;2.53;2.00;;;18.20;99.90;;;;;;4899578;29;20457;-90
2021/10/23 13:13:44;;;;;;;1.63;1.52;;;18.30;99.90;;;;;;4891667;29;20043;-90
2021/10/23 13:16:14;;;;;;;1.80;1.70;;;18.30;99.90;;;;;;4919234;29;20051;-90
2021/10/23 13:18:42;;;;;;;2.67;2.47;;;18.30;99.90;;;;;;4901755;29;20052;-90
2021/10/23 13:21:10;;;;;;;4.10;3.03;;;18.20;99.90;;;;;;4886599;29;20055;-89
2021/10/23 13:23:41;;;;;;;1.90;1.67;;;18.20;99.90;;;;;;4922631;29;20091;-88
2021/10/23 13:26:09;;;;;;;1.98;1.88;;;18.10;99.90;;;;;;4910527;29;20062;-91
2021/10/23 13:28:36;;;;;;;2.63;2.42;;;18.00;99.90;;;;;;4920088;29;20408;-89
2021/10/23 13:31:04;;;;;;;2.47;2.25;;;17.90;99.90;;;;;;4911739;29;20058;-91
2021/10/23 13:33:35;;;;;;;2.20;2.00;;;17.80;99.90;;;;;;4911922;29;20489;-90
2021/10/23 13:36:09;;;;;;;2.08;1.95;;;17.80;99.90;;;;;;4909847;29;20052;-91
2021/10/23 13:38:37;;;;;;;5.72;4.13;;;17.70;99.90;;;;;;4910834;29;20039;-91
2021/10/23 13:41:20;;;;;;;1.60;1.50;;;17.60;99.90;;;;;;4909389;29;20106;-90
2021/10/23 13:44:18;;;;;;;2.22;2.13;;;17.50;99.90;;;;;;4876631;29;20473;-90
2021/10/23 13:47:19;;;;;;;4.50;3.05;;;17.50;99.90;;;;;;4880339;29;20130;-91
2021/10/23 13:49:46;;;;;;;2.97;2.78;;;17.40;99.90;;;;;;4869264;29;20163;-88
2021/10/23 13:52:26;;;;;;;3.35;3.05;;;17.40;99.90;;;;;;4886661;29;20458;-91
2021/10/23 13:55:50;;;;;;;2.38;2.17;;;17.30;99.90;;;;;;4873450;29;20152;-92